Terminal Aerodrome Forecast
Issued by NWS

Home | Current Version | Previous Version | Text Only | Print | Product List | Glossary On
Versions: 1 2 3 4 5 6 7 8 9 10 11 12 13 14 15 16 17 18 19 20 21 22 23 24 25 26 27 28 29 30 31 32 33 34 35 36 37 38 39 40 41 42 43 44 45 46 47 48 49 50
790
FTUS41 KALY 271154 AAA
TAFPSF
TAF AMD
KPSF 271154Z 2712/2812 04005KT 1 1/2SM -RAPL BR OVC008
      WS020/18030KT
      TEMPO 2712/2714 6SM -FZRAPL BR BKN006 OVC010
     FM271600 12004KT 4SM -RA BR OVC007
     FM271800 18005KT P6SM VCSH OVC007
     FM280000 00000KT 4SM BR OVC005=

USA.gov is the U.S. government's official web portal to all federal, state and local government web resources and services.